createdAt,value
2022-11-20T00:00:54.903Z,83.90
2022-11-20T00:01:56.510Z,84.14
2022-11-20T00:02:58.104Z,84.75
2022-11-20T00:03:59.843Z,84.98
2022-11-20T00:05:01.461Z,84.64
2022-11-20T00:06:04.040Z,84.42
2022-11-20T00:07:05.669Z,84.48
2022-11-20T00:08:07.255Z,84.53
2022-11-20T00:09:10.573Z,84.42
2022-11-20T00:10:12.211Z,83.95
2022-11-20T00:11:18.484Z,84.14
2022-11-20T00:12:20.076Z,84.11
2022-11-20T00:13:21.620Z,84.44
2022-11-20T00:14:23.224Z,84.56
2022-11-20T00:15:24.770Z,84.42
2022-11-20T00:16:28.020Z,84.65
2022-11-20T00:17:29.632Z,84.65
2022-11-20T00:18:31.194Z,84.79
2022-11-20T00:19:32.730Z,84.70
2022-11-20T00:20:34.300Z,84.72
2022-11-20T00:21:35.883Z,84.49
2022-11-20T00:22:37.469Z,84.66
2022-11-20T00:23:39.098Z,84.56
2022-11-20T00:24:43.216Z,83.93
2022-11-20T00:25:44.942Z,84.34
2022-11-20T00:26:46.504Z,84.70
2022-11-20T00:27:48.125Z,84.56
2022-11-20T00:28:51.201Z,84.93
2022-11-20T00:29:52.737Z,85.05
2022-11-20T00:31:03.883Z,84.70
2022-11-20T00:32:05.574Z,84.59
2022-11-20T00:33:07.099Z,84.99
2022-11-20T00:34:08.652Z,85.14
2022-11-20T00:35:10.209Z,85.00
2022-11-20T00:36:16.295Z,85.14
2022-11-20T00:37:17.903Z,85.41
2022-11-20T00:38:19.444Z,85.48
2022-11-20T00:39:21.583Z,85.65
2022-11-20T00:40:23.650Z,85.75
2022-11-20T00:41:25.656Z,85.64
2022-11-20T00:42:27.228Z,85.51
2022-11-20T00:43:28.807Z,85.33
2022-11-20T00:44:30.379Z,85.06
2022-11-20T00:45:31.989Z,84.71
2022-11-20T00:46:33.615Z,84.74
2022-11-20T00:47:35.172Z,84.49
2022-11-20T00:48:36.856Z,84.67
2022-11-20T00:49:38.401Z,84.99
2022-11-20T00:50:40.269Z,84.38
2022-11-20T00:51:41.816Z,84.23
2022-11-20T00:52:43.403Z,83.89
2022-11-20T00:53:45.218Z,83.76
2022-11-20T00:54:46.786Z,84.29
2022-11-20T00:55:58.262Z,83.81
2022-11-20T00:56:59.799Z,83.72
2022-11-20T00:58:04.391Z,83.51
2022-11-20T00:59:06.278Z,83.77
2022-11-20T01:00:08.202Z,83.50
2022-11-20T01:01:09.766Z,83.22
2022-11-20T01:02:11.369Z,83.30
2022-11-20T01:03:12.919Z,83.53
2022-11-20T01:04:14.528Z,83.70
2022-11-20T01:05:17.429Z,83.51
2022-11-20T01:06:20.676Z,83.41
2022-11-20T01:07:22.277Z,83.32
2022-11-20T01:08:23.850Z,82.95
2022-11-20T01:09:25.490Z,83.45
2022-11-20T01:10:27.083Z,83.75
2022-11-20T01:11:30.511Z,83.98
2022-11-20T01:12:32.111Z,84.11
2022-11-20T01:13:40.086Z,83.98
2022-11-20T01:14:41.707Z,83.62
2022-11-20T01:15:43.250Z,83.61
2022-11-20T01:16:46.862Z,83.44
2022-11-20T01:17:48.407Z,83.23
2022-11-20T01:18:51.517Z,83.08
2022-11-20T01:19:53.126Z,83.10
2022-11-20T01:20:54.674Z,82.94
2022-11-20T01:21:56.324Z,82.97
2022-11-20T01:22:57.871Z,82.71
2022-11-20T01:23:59.566Z,83.17
2022-11-20T01:25:01.098Z,83.12
2022-11-20T01:26:08.667Z,83.16
2022-11-20T01:27:10.289Z,83.11
2022-11-20T01:28:11.838Z,82.80
2022-11-20T01:29:18.659Z,82.94
2022-11-20T01:30:20.419Z,82.81
2022-11-20T01:31:32.581Z,83.01
2022-11-20T01:32:34.461Z,83.03
2022-11-20T01:33:36.105Z,82.76
2022-11-20T01:34:37.665Z,82.65
2022-11-20T01:35:39.199Z,82.85
2022-11-20T01:36:41.277Z,82.97
2022-11-20T01:37:43.868Z,82.73
2022-11-20T01:38:45.720Z,82.73
2022-11-20T01:39:47.748Z,82.52
2022-11-20T01:40:56.725Z,82.65
2022-11-20T01:42:17.011Z,82.53
2022-11-20T01:43:21.754Z,82.34
2022-11-20T01:44:44.173Z,82.47
2022-11-20T01:46:06.279Z,82.54
2022-11-20T01:47:07.826Z,82.25
2022-11-20T01:48:09.440Z,82.19
2022-11-20T01:49:15.720Z,82.27
2022-11-20T01:50:17.424Z,82.46
2022-11-20T01:51:26.690Z,81.95
2022-11-20T01:52:32.797Z,81.64
2022-11-20T01:53:35.414Z,81.73
2022-11-20T01:54:46.922Z,81.54
2022-11-20T01:55:53.453Z,82.07
2022-11-20T01:56:55.696Z,81.69
2022-11-20T01:57:57.261Z,81.54
2022-11-20T01:59:00.101Z,81.24
2022-11-20T02:00:07.581Z,81.33
2022-11-20T02:01:09.253Z,81.45
2022-11-20T02:02:10.798Z,81.79
2022-11-20T02:03:14.987Z,81.75
2022-11-20T02:04:16.538Z,81.66
2022-11-20T02:05:25.488Z,80.98
2022-11-20T02:06:29.011Z,80.95
2022-11-20T02:07:30.721Z,81.00
2022-11-20T02:08:32.477Z,81.11
2022-11-20T02:09:34.021Z,81.14
2022-11-20T02:10:35.712Z,80.53
2022-11-20T02:11:37.308Z,80.74
2022-11-20T02:12:57.506Z,80.99
2022-11-20T02:13:59.317Z,80.69
2022-11-20T02:15:00.863Z,80.90
2022-11-20T02:16:02.879Z,80.93
2022-11-20T02:17:04.496Z,80.68
2022-11-20T02:18:06.330Z,80.66
2022-11-20T02:19:11.078Z,80.51
2022-11-20T02:20:13.110Z,80.81
2022-11-20T02:21:31.464Z,81.15
2022-11-20T02:22:37.274Z,81.10
2022-11-20T02:24:07.910Z,81.54
2022-11-20T02:25:09.469Z,81.39
2022-11-20T02:26:13.190Z,80.95
2022-11-20T02:27:16.001Z,81.30
2022-11-20T02:28:18.429Z,81.33
2022-11-20T02:29:51.204Z,81.11
2022-11-20T02:30:52.783Z,81.23
2022-11-20T02:31:54.802Z,81.25
2022-11-20T02:32:56.366Z,81.26
2022-11-20T02:33:58.412Z,81.31
2022-11-20T02:35:29.955Z,81.57
2022-11-20T02:36:31.576Z,81.88
2022-11-20T02:37:34.104Z,81.98
2022-11-20T02:38:35.692Z,82.30
2022-11-20T02:39:37.287Z,82.05
2022-11-20T02:40:38.968Z,82.76
2022-11-20T02:41:40.595Z,82.67
2022-11-20T02:42:42.203Z,82.72
2022-11-20T02:43:43.771Z,82.66
2022-11-20T02:44:45.322Z,82.42
2022-11-20T02:45:47.819Z,82.80
2022-11-20T02:46:49.360Z,82.67
2022-11-20T02:47:51.248Z,82.86
2022-11-20T02:48:53.489Z,82.96
2022-11-20T02:49:55.049Z,83.10
2022-11-20T02:50:56.713Z,83.18
2022-11-20T02:51:58.256Z,83.37
2022-11-20T02:52:59.843Z,83.78
2022-11-20T02:54:01.475Z,83.83
2022-11-20T02:55:03.391Z,83.80
2022-11-20T02:56:05.280Z,83.88
2022-11-20T02:57:06.827Z,83.95
2022-11-20T02:58:08.413Z,83.71
2022-11-20T02:59:09.984Z,83.82
2022-11-20T03:00:12.225Z,83.81
2022-11-20T03:01:13.868Z,84.06
2022-11-20T03:02:15.477Z,83.86
2022-11-20T03:03:17.086Z,83.67
2022-11-20T03:04:18.632Z,83.69
2022-11-20T03:05:20.239Z,84.23
2022-11-20T03:06:21.793Z,84.47
2022-11-20T03:07:23.379Z,84.40
2022-11-20T03:08:24.943Z,84.82
2022-11-20T03:09:26.496Z,85.08
2022-11-20T03:10:28.107Z,85.06
2022-11-20T03:11:29.672Z,85.42
2022-11-20T03:12:31.291Z,85.30
2022-11-20T03:13:33.066Z,85.22
2022-11-20T03:14:35.417Z,85.00
2022-11-20T03:15:38.041Z,84.58
2022-11-20T03:16:41.478Z,84.40
2022-11-20T03:17:43.104Z,84.17
2022-11-20T03:18:44.658Z,83.98
2022-11-20T03:19:46.207Z,83.70
2022-11-20T03:20:47.806Z,83.77
2022-11-20T03:21:49.350Z,84.63
2022-11-20T03:22:50.978Z,84.90
2022-11-20T03:23:53.721Z,84.96
2022-11-20T03:24:55.669Z,85.04
2022-11-20T03:25:57.286Z,84.93
2022-11-20T03:26:58.879Z,84.66
2022-11-20T03:28:00.491Z,84.67
2022-11-20T03:29:03.737Z,84.62
2022-11-20T03:30:06.584Z,84.57
2022-11-20T03:31:13.557Z,84.96
2022-11-20T03:32:15.199Z,85.24
2022-11-20T03:33:16.739Z,85.11
2022-11-20T03:34:18.285Z,85.13
2022-11-20T03:35:19.835Z,85.17
2022-11-20T03:36:21.550Z,85.36
2022-11-20T03:37:23.184Z,85.89
2022-11-20T03:38:24.748Z,85.82
2022-11-20T03:39:27.178Z,85.89
2022-11-20T03:40:28.871Z,85.76
2022-11-20T03:41:31.393Z,85.86
2022-11-20T03:42:48.041Z,85.59
2022-11-20T03:43:53.892Z,86.08
2022-11-20T03:44:55.548Z,85.78
2022-11-20T03:45:57.214Z,85.89
2022-11-20T03:46:58.799Z,85.47
2022-11-20T03:48:00.453Z,85.45
2022-11-20T03:49:02.148Z,85.11
2022-11-20T03:50:04.486Z,84.51
2022-11-20T03:51:15.894Z,84.41
2022-11-20T03:52:17.457Z,84.71
2022-11-20T03:53:19.202Z,84.22
2022-11-20T03:54:20.750Z,84.72
2022-11-20T03:55:22.366Z,83.07
2022-11-20T03:56:25.238Z,83.27
2022-11-20T03:57:26.853Z,82.92
2022-11-20T03:58:28.420Z,82.54
2022-11-20T03:59:29.961Z,82.95
2022-11-20T04:00:31.517Z,83.06
2022-11-20T04:01:35.146Z,83.07
2022-11-20T04:02:37.765Z,83.43
2022-11-20T04:03:39.879Z,83.81
2022-11-20T04:04:41.442Z,84.16
2022-11-20T04:05:42.980Z,84.24
2022-11-20T04:06:44.524Z,84.35
2022-11-20T04:07:47.180Z,84.31
2022-11-20T04:08:53.521Z,84.53
2022-11-20T04:09:55.273Z,84.82
2022-11-20T04:10:56.817Z,85.03
2022-11-20T04:11:58.407Z,84.66
2022-11-20T04:12:59.954Z,84.95
2022-11-20T04:14:03.649Z,85.16
2022-11-20T04:15:05.410Z,84.39
2022-11-20T04:16:07.635Z,84.24
2022-11-20T04:17:09.299Z,84.61
2022-11-20T04:18:10.891Z,85.05
2022-11-20T04:19:16.269Z,84.86
2022-11-20T04:20:17.846Z,85.18
2022-11-20T04:21:19.459Z,85.00
2022-11-20T04:22:21.075Z,85.07
2022-11-20T04:23:28.458Z,84.98
2022-11-20T04:24:30.376Z,85.50
2022-11-20T04:25:31.950Z,85.45
2022-11-20T04:26:33.578Z,85.73
2022-11-20T04:27:35.180Z,86.22
2022-11-20T04:28:37.044Z,86.46
2022-11-20T04:29:38.607Z,86.66
2022-11-20T04:30:40.158Z,86.04
2022-11-20T04:31:41.708Z,86.30
2022-11-20T04:32:43.348Z,85.85
2022-11-20T04:33:44.938Z,85.95
2022-11-20T04:34:46.570Z,86.31
2022-11-20T04:35:48.432Z,86.19
2022-11-20T04:36:49.976Z,86.62
2022-11-20T04:37:54.538Z,86.97
2022-11-20T04:38:57.559Z,86.90
2022-11-20T04:39:59.254Z,86.56
2022-11-20T04:41:01.789Z,87.01
2022-11-20T04:42:21.875Z,87.35
2022-11-20T04:43:23.421Z,87.10
2022-11-20T04:44:24.954Z,87.39
2022-11-20T04:45:26.574Z,87.24
2022-11-20T04:46:28.228Z,87.27
2022-11-20T04:47:29.819Z,87.46
2022-11-20T04:48:31.476Z,86.92
2022-11-20T04:49:33.520Z,87.58
2022-11-20T04:50:35.131Z,87.42
2022-11-20T04:51:36.992Z,87.75
2022-11-20T04:52:38.548Z,87.34
2022-11-20T04:53:40.189Z,88.07
2022-11-20T04:54:42.623Z,87.67
2022-11-20T04:55:44.228Z,87.75
2022-11-20T04:56:45.970Z,87.59
2022-11-20T04:57:51.388Z,87.95
2022-11-20T04:58:53.193Z,88.18
2022-11-20T04:59:54.768Z,87.55
2022-11-20T05:01:23.383Z,87.86
2022-11-20T05:02:25.072Z,87.98
2022-11-20T05:03:26.614Z,87.95
2022-11-20T05:04:28.224Z,87.44
2022-11-20T05:05:29.855Z,87.33
2022-11-20T05:06:31.403Z,87.16
2022-11-20T05:07:33.072Z,87.03
2022-11-20T05:08:34.965Z,86.65
2022-11-20T05:09:36.571Z,87.35
2022-11-20T05:10:38.173Z,86.84
2022-11-20T05:11:39.717Z,87.20
2022-11-20T05:12:41.418Z,87.80
2022-11-20T05:13:43.277Z,88.07
2022-11-20T05:14:45.555Z,88.28
2022-11-20T05:15:47.225Z,88.99
2022-11-20T05:16:48.779Z,88.48
2022-11-20T05:17:51.217Z,88.38
2022-11-20T05:18:53.619Z,87.80
2022-11-20T05:19:55.261Z,87.71
2022-11-20T05:20:57.716Z,87.66
2022-11-20T05:21:59.320Z,87.22
2022-11-20T05:23:00.853Z,86.51
2022-11-20T05:24:02.430Z,86.63
2022-11-20T05:25:04.162Z,86.35
2022-11-20T05:26:06.712Z,86.81
2022-11-20T05:27:08.284Z,86.93
2022-11-20T05:28:09.853Z,86.35
2022-11-20T05:29:12.975Z,86.28
2022-11-20T05:30:14.968Z,85.97
2022-11-20T05:31:23.444Z,85.95
2022-11-20T05:32:28.056Z,85.56
2022-11-20T05:33:29.609Z,85.55
2022-11-20T05:34:31.252Z,85.57
2022-11-20T05:35:32.843Z,85.60
2022-11-20T05:36:34.387Z,86.27
2022-11-20T05:37:35.988Z,86.32
2022-11-20T05:38:37.589Z,85.84
2022-11-20T05:39:39.245Z,86.32
2022-11-20T05:40:41.025Z,86.25
2022-11-20T05:41:42.611Z,85.94
2022-11-20T05:42:44.755Z,86.27
2022-11-20T05:43:47.024Z,86.36
2022-11-20T05:44:48.560Z,86.82
2022-11-20T05:45:55.948Z,86.63
2022-11-20T05:46:57.552Z,86.53
2022-11-20T05:48:02.229Z,86.91
2022-11-20T05:49:03.821Z,86.71
2022-11-20T05:50:05.822Z,86.76
2022-11-20T05:51:08.317Z,87.12
2022-11-20T05:52:09.864Z,87.00
2022-11-20T05:53:11.411Z,86.94
2022-11-20T05:54:12.955Z,87.44
2022-11-20T05:55:14.581Z,87.22
2022-11-20T05:56:18.415Z,87.12
2022-11-20T05:57:19.984Z,87.67
2022-11-20T05:58:21.567Z,86.99
2022-11-20T05:59:23.322Z,86.66
2022-11-20T06:00:25.174Z,87.46
2022-11-20T06:01:27.184Z,87.33
2022-11-20T06:02:28.779Z,86.93
2022-11-20T06:03:30.789Z,87.38
2022-11-20T06:04:32.332Z,87.43
2022-11-20T06:05:34.603Z,87.73
2022-11-20T06:06:36.230Z,87.77
2022-11-20T06:07:37.803Z,88.19
2022-11-20T06:08:39.401Z,88.53
2022-11-20T06:09:40.941Z,89.02
2022-11-20T06:10:42.499Z,88.81
2022-11-20T06:11:44.116Z,88.62
2022-11-20T06:12:45.658Z,88.86
2022-11-20T06:13:47.551Z,88.81
2022-11-20T06:14:49.111Z,88.92
2022-11-20T06:15:53.942Z,88.87
2022-11-20T06:16:55.597Z,88.63
2022-11-20T06:17:57.311Z,88.59
2022-11-20T06:18:58.861Z,88.83
2022-11-20T06:20:00.449Z,89.17
2022-11-20T06:21:09.562Z,89.08
2022-11-20T06:22:11.471Z,88.92
2022-11-20T06:23:13.286Z,88.57
2022-11-20T06:24:14.847Z,89.00
2022-11-20T06:25:16.486Z,89.27
2022-11-20T06:26:20.052Z,89.31
2022-11-20T06:27:21.602Z,89.04
2022-11-20T06:28:23.206Z,88.84
2022-11-20T06:29:26.802Z,89.34
2022-11-20T06:30:31.598Z,88.90
2022-11-20T06:31:35.919Z,88.61
2022-11-20T06:32:37.461Z,88.20
2022-11-20T06:33:39.075Z,88.56
2022-11-20T06:34:40.719Z,88.25
2022-11-20T06:35:42.267Z,88.69
2022-11-20T06:36:43.813Z,88.05
2022-11-20T06:37:45.370Z,88.39
2022-11-20T06:38:46.943Z,88.74
2022-11-20T06:39:48.616Z,88.61
2022-11-20T06:40:50.268Z,88.33
2022-11-20T06:41:57.268Z,88.94
2022-11-20T06:43:00.276Z,89.15
2022-11-20T06:44:01.799Z,88.76
2022-11-20T06:45:03.603Z,88.82
2022-11-20T06:46:05.311Z,89.11
2022-11-20T06:47:07.435Z,88.61
2022-11-20T06:48:09.028Z,88.68
2022-11-20T06:49:10.573Z,88.10
2022-11-20T06:50:12.117Z,87.99
2022-11-20T06:51:13.696Z,89.14
2022-11-20T06:52:15.300Z,88.97
2022-11-20T06:53:16.851Z,89.08
2022-11-20T06:54:18.399Z,89.43
2022-11-20T06:55:19.970Z,89.05
2022-11-20T06:56:21.528Z,89.13
2022-11-20T06:57:23.203Z,89.25
2022-11-20T06:58:24.931Z,88.79
2022-11-20T06:59:26.486Z,88.73
2022-11-20T07:00:28.148Z,89.03
2022-11-20T07:01:29.716Z,88.96
2022-11-20T07:02:31.371Z,88.83
2022-11-20T07:03:32.919Z,88.79
2022-11-20T07:04:34.475Z,88.59
2022-11-20T07:05:36.363Z,88.41
2022-11-20T07:06:37.943Z,88.63
2022-11-20T07:07:39.678Z,88.42
2022-11-20T07:08:41.292Z,88.20
2022-11-20T07:09:42.929Z,88.86
2022-11-20T07:10:44.482Z,88.61
2022-11-20T07:11:46.063Z,88.72
2022-11-20T07:12:51.593Z,88.73
2022-11-20T07:13:53.183Z,88.56
2022-11-20T07:14:54.801Z,89.42
2022-11-20T07:15:56.477Z,89.06
2022-11-20T07:16:58.028Z,88.95
2022-11-20T07:18:00.489Z,89.12
2022-11-20T07:19:02.175Z,89.03
2022-11-20T07:20:03.942Z,89.36
2022-11-20T07:21:06.917Z,89.05
2022-11-20T07:22:08.485Z,89.47
2022-11-20T07:23:10.043Z,89.47
2022-11-20T07:24:11.676Z,89.67
2022-11-20T07:25:14.154Z,89.70
2022-11-20T07:26:15.783Z,89.66
2022-11-20T07:27:17.448Z,89.80
2022-11-20T07:28:19.020Z,89.45
2022-11-20T07:29:20.799Z,89.82
2022-11-20T07:30:22.519Z,90.01
2022-11-20T07:31:24.086Z,90.56
2022-11-20T07:32:25.832Z,90.02
2022-11-20T07:33:27.442Z,90.00
2022-11-20T07:34:29.023Z,89.88
2022-11-20T07:35:30.652Z,90.56
2022-11-20T07:36:32.230Z,90.68
2022-11-20T07:37:36.864Z,90.41
2022-11-20T07:38:38.834Z,90.05
2022-11-20T07:39:40.665Z,90.24
2022-11-20T07:40:42.252Z,90.24
2022-11-20T07:41:43.870Z,90.30
2022-11-20T07:42:50.019Z,90.48
2022-11-20T07:43:51.565Z,90.15
2022-11-20T07:44:53.121Z,89.82
2022-11-20T07:46:00.472Z,89.38
2022-11-20T07:47:02.410Z,89.50
2022-11-20T07:48:04.160Z,89.37
2022-11-20T07:49:05.774Z,89.46
2022-11-20T07:50:08.543Z,89.40
2022-11-20T07:51:10.155Z,89.73
2022-11-20T07:52:11.783Z,89.80
2022-11-20T07:53:14.881Z,89.74
2022-11-20T07:54:16.436Z,89.83
2022-11-20T07:55:18.118Z,89.90
2022-11-20T07:56:19.718Z,89.99
2022-11-20T07:57:25.665Z,89.63
2022-11-20T07:58:30.190Z,88.83
2022-11-20T07:59:31.947Z,89.06
2022-11-20T08:00:33.563Z,89.47
2022-11-20T08:01:35.247Z,89.41
2022-11-20T08:02:40.420Z,88.63
2022-11-20T08:03:42.041Z,89.39
2022-11-20T08:04:43.654Z,88.75
2022-11-20T08:05:45.256Z,89.11
2022-11-20T08:06:46.881Z,89.31
2022-11-20T08:07:48.498Z,89.64
2022-11-20T08:08:50.175Z,89.51
2022-11-20T08:09:51.755Z,89.04
2022-11-20T08:10:53.386Z,89.55
2022-11-20T08:12:13.434Z,89.63
2022-11-20T08:13:33.434Z,89.35
2022-11-20T08:14:34.995Z,89.81
2022-11-20T08:15:36.896Z,89.01
2022-11-20T08:16:41.758Z,89.36
2022-11-20T08:17:56.760Z,89.02
2022-11-20T08:19:05.184Z,89.45
2022-11-20T08:20:07.158Z,89.83
2022-11-20T08:21:08.956Z,89.71
2022-11-20T08:22:10.806Z,90.20
2022-11-20T08:23:12.399Z,90.16
2022-11-20T08:24:14.108Z,90.25
2022-11-20T08:25:15.673Z,91.23
2022-11-20T08:26:17.302Z,90.87
2022-11-20T08:27:18.949Z,90.32
2022-11-20T08:28:22.075Z,89.45
2022-11-20T08:29:24.332Z,89.70
2022-11-20T08:30:26.562Z,89.28
2022-11-20T08:31:28.254Z,89.13
2022-11-20T08:32:29.814Z,88.89
2022-11-20T08:33:33.564Z,89.01
2022-11-20T08:34:35.141Z,89.60
2022-11-20T08:35:37.387Z,89.91
2022-11-20T08:36:39.044Z,88.92
2022-11-20T08:37:42.570Z,89.24
2022-11-20T08:38:50.863Z,89.48
2022-11-20T08:39:54.582Z,89.63
2022-11-20T08:41:18.957Z,89.06
2022-11-20T08:42:20.512Z,89.14
2022-11-20T08:43:22.061Z,88.84
2022-11-20T08:44:23.601Z,88.72
2022-11-20T08:45:28.405Z,88.51
2022-11-20T08:46:42.164Z,88.45
2022-11-20T08:47:44.074Z,87.89
2022-11-20T08:48:45.728Z,88.00
2022-11-20T08:49:47.296Z,88.26
2022-11-20T08:50:48.851Z,87.60
2022-11-20T08:51:53.423Z,87.34
2022-11-20T08:52:54.976Z,86.68
2022-11-20T08:53:56.611Z,86.96
2022-11-20T08:54:58.157Z,87.19
2022-11-20T08:55:59.751Z,86.57
2022-11-20T08:57:01.334Z,87.23
2022-11-20T08:58:06.003Z,86.84
2022-11-20T08:59:23.370Z,87.60
2022-11-20T09:00:29.368Z,88.00
2022-11-20T09:01:30.972Z,88.24
2022-11-20T09:02:33.410Z,87.74
2022-11-20T09:03:34.988Z,87.56
2022-11-20T09:04:36.587Z,87.88
2022-11-20T09:05:38.131Z,87.46
2022-11-20T09:06:39.682Z,87.08
2022-11-20T09:07:42.272Z,87.61
2022-11-20T09:08:43.951Z,87.56
2022-11-20T09:09:46.421Z,87.08
2022-11-20T09:10:53.030Z,87.49
2022-11-20T09:11:54.670Z,88.20
2022-11-20T09:12:56.654Z,87.42
2022-11-20T09:13:58.236Z,87.71
2022-11-20T09:14:59.830Z,88.00
2022-11-20T09:16:06.743Z,88.31
2022-11-20T09:17:08.705Z,88.14
2022-11-20T09:18:10.259Z,88.12
2022-11-20T09:20:33.468Z,87.46
2022-11-20T09:21:35.030Z,87.77
2022-11-20T09:22:36.835Z,87.66
2022-11-20T09:23:38.544Z,87.22
2022-11-20T09:24:40.170Z,87.13
2022-11-20T09:25:41.978Z,87.26
2022-11-20T09:26:43.532Z,87.55
2022-11-20T09:27:47.067Z,87.73
2022-11-20T09:28:50.262Z,87.48
2022-11-20T09:29:53.430Z,87.69
2022-11-20T09:30:55.060Z,87.67
2022-11-20T09:31:56.609Z,87.59
2022-11-20T09:32:58.228Z,86.94
2022-11-20T09:33:59.805Z,87.22
2022-11-20T09:36:08.039Z,86.68
2022-11-20T09:37:09.602Z,87.13
2022-11-20T09:38:11.927Z,87.41
2022-11-20T09:39:13.536Z,87.10
2022-11-20T09:40:26.479Z,86.81
2022-11-20T09:41:57.190Z,87.54
2022-11-20T09:43:11.717Z,87.29
2022-11-20T09:44:31.966Z,86.33
2022-11-20T09:45:51.815Z,87.47
2022-11-20T09:46:56.395Z,87.00
2022-11-20T09:48:06.919Z,86.66
2022-11-20T09:49:33.626Z,86.31
2022-11-20T09:50:48.763Z,85.98
2022-11-20T09:52:00.303Z,85.91
2022-11-20T09:53:14.480Z,85.56
2022-11-20T09:54:20.518Z,85.29
2022-11-20T09:55:22.471Z,85.61
2022-11-20T09:56:24.532Z,85.76
2022-11-20T09:57:37.987Z,86.14
2022-11-20T09:58:43.955Z,85.89
2022-11-20T10:00:00.509Z,85.59
2022-11-20T10:01:11.517Z,85.49
2022-11-20T10:02:27.926Z,84.47
2022-11-20T10:03:47.034Z,83.78
2022-11-20T10:04:54.728Z,83.26
2022-11-20T10:05:56.337Z,83.89
2022-11-20T10:07:30.951Z,84.56
2022-11-20T10:08:32.901Z,85.26
2022-11-20T10:09:39.311Z,84.65
2022-11-20T10:10:50.822Z,84.84
2022-11-20T10:12:15.516Z,85.00
2022-11-20T10:13:20.015Z,85.98
2022-11-20T10:14:35.487Z,85.70
2022-11-20T10:15:55.731Z,85.74
2022-11-20T10:17:11.802Z,84.83
2022-11-20T10:18:23.233Z,85.49
2022-11-20T10:19:24.789Z,84.56
2022-11-20T10:20:26.513Z,84.61
2022-11-20T10:21:34.710Z,84.32
2022-11-20T10:23:00.932Z,84.54
2022-11-20T10:24:25.053Z,85.31
2022-11-20T10:25:40.111Z,84.17
2022-11-20T10:26:44.271Z,84.21
2022-11-20T10:27:58.378Z,85.17
2022-11-20T10:29:11.777Z,83.98
2022-11-20T10:30:14.610Z,84.11
2022-11-20T10:31:26.252Z,83.97
2022-11-20T10:32:34.043Z,84.22
2022-11-20T10:34:05.162Z,84.41
2022-11-20T10:35:09.621Z,83.98
2022-11-20T10:36:20.279Z,84.26
2022-11-20T10:37:26.261Z,84.68
2022-11-20T10:38:43.774Z,85.39
2022-11-20T10:39:57.957Z,85.05
2022-11-20T10:41:35.880Z,83.88
2022-11-20T10:42:58.915Z,83.23
2022-11-20T10:44:04.794Z,84.13
2022-11-20T10:45:24.957Z,84.46
2022-11-20T10:46:26.574Z,84.20
2022-11-20T10:47:28.887Z,84.34
2022-11-20T10:48:31.693Z,84.79
2022-11-20T10:49:34.064Z,85.05
2022-11-20T10:50:36.502Z,85.13
2022-11-20T10:51:56.162Z,85.40
2022-11-20T10:53:06.322Z,84.95
2022-11-20T10:54:25.973Z,85.31
2022-11-20T10:55:54.873Z,84.79
2022-11-20T10:57:04.486Z,84.16
2022-11-20T10:58:14.768Z,84.21
2022-11-20T11:00:03.887Z,83.60
2022-11-20T11:01:06.636Z,84.33
2022-11-20T11:02:36.745Z,84.58
2022-11-20T11:03:38.367Z,85.49
2022-11-20T11:04:47.766Z,85.51
2022-11-20T11:05:58.175Z,85.56
2022-11-20T11:07:04.709Z,85.79
2022-11-20T11:08:11.091Z,86.00
2022-11-20T11:09:20.727Z,85.27
2022-11-20T11:10:30.183Z,85.41
2022-11-20T11:11:33.060Z,85.38
2022-11-20T11:12:34.697Z,85.61
2022-11-20T11:13:36.451Z,85.88
2022-11-20T11:14:51.851Z,84.91
2022-11-20T11:15:53.615Z,84.99
2022-11-20T11:16:57.164Z,85.11
2022-11-20T11:17:58.761Z,84.71
2022-11-20T11:19:15.830Z,84.91
2022-11-20T11:20:24.922Z,84.56
2022-11-20T11:21:26.608Z,84.02
2022-11-20T11:22:29.482Z,84.85
2022-11-20T11:23:43.472Z,83.70
2022-11-20T11:24:52.836Z,84.57
2022-11-20T11:25:59.651Z,85.07
2022-11-20T11:27:05.552Z,84.62
2022-11-20T11:28:19.523Z,84.87
2022-11-20T11:29:21.351Z,84.80
2022-11-20T11:30:29.473Z,84.60
2022-11-20T11:31:35.296Z,83.93
2022-11-20T11:32:36.927Z,84.39
2022-11-20T11:33:38.642Z,84.49
2022-11-20T11:34:40.532Z,83.93
2022-11-20T11:35:51.693Z,84.04
2022-11-20T11:36:56.713Z,83.51
2022-11-20T11:38:08.346Z,83.81
2022-11-20T11:39:15.489Z,84.64
2022-11-20T11:40:25.759Z,83.74
2022-11-20T11:41:30.189Z,84.11
2022-11-20T11:42:32.026Z,83.53
2022-11-20T11:43:53.783Z,84.51
2022-11-20T11:45:07.288Z,83.84
2022-11-20T11:46:21.053Z,82.78
2022-11-20T11:47:49.430Z,83.83
2022-11-20T11:49:15.326Z,83.62
2022-11-20T11:50:19.228Z,82.95
2022-11-20T11:51:23.801Z,83.23
2022-11-20T11:52:25.374Z,82.47
2022-11-20T11:53:27.053Z,82.90
2022-11-20T11:54:49.181Z,82.51
2022-11-20T11:56:10.130Z,82.62
2022-11-20T11:57:16.547Z,82.17
2022-11-20T11:58:53.736Z,82.09
2022-11-20T12:00:09.446Z,82.39
2022-11-20T12:01:32.955Z,82.57
2022-11-20T12:02:40.684Z,82.26
2022-11-20T12:03:44.041Z,82.33
2022-11-20T12:04:49.911Z,83.09
2022-11-20T12:05:56.603Z,82.43
2022-11-20T12:07:06.069Z,83.22
2022-11-20T12:08:25.309Z,82.87
2022-11-20T12:09:33.728Z,83.11
2022-11-20T12:10:49.584Z,81.84
2022-11-20T12:12:18.555Z,82.33
2022-11-20T12:13:35.399Z,81.68
2022-11-20T12:14:41.953Z,82.06
2022-11-20T12:15:45.696Z,81.98
2022-11-20T12:16:47.618Z,82.44
2022-11-20T12:17:49.604Z,82.82
2022-11-20T12:18:52.730Z,81.59
2022-11-20T12:19:54.385Z,81.69
2022-11-20T12:20:56.153Z,82.26
2022-11-20T12:22:19.033Z,82.20
2022-11-20T12:23:32.699Z,81.96
2022-11-20T12:24:55.333Z,81.76
2022-11-20T12:25:58.112Z,81.81
2022-11-20T12:27:23.721Z,81.85
2022-11-20T12:28:40.501Z,82.15
2022-11-20T12:29:54.764Z,81.96
2022-11-20T12:31:15.755Z,81.63
2022-11-20T12:32:17.297Z,81.70
2022-11-20T12:33:22.145Z,81.95
2022-11-20T12:34:50.226Z,81.89
2022-11-20T12:36:07.975Z,82.18
2022-11-20T12:37:22.676Z,82.20
2022-11-20T12:38:54.946Z,82.54
2022-11-20T12:39:57.515Z,81.78
2022-11-20T12:41:45.519Z,82.26
2022-11-20T12:43:39.409Z,82.45
2022-11-20T12:45:02.702Z,82.83
2022-11-20T12:46:29.395Z,82.09
2022-11-20T12:47:56.116Z,81.55
2022-11-20T12:49:06.495Z,81.97
2022-11-20T12:50:42.817Z,81.88
2022-11-20T12:52:22.925Z,81.87
2022-11-20T12:53:42.980Z,81.11
2022-11-20T12:55:05.214Z,81.49
2022-11-20T12:56:24.792Z,80.94
2022-11-20T12:57:46.193Z,81.16
2022-11-20T12:58:59.770Z,81.14
2022-11-20T13:00:07.240Z,81.20
2022-11-20T13:01:43.736Z,81.31
2022-11-20T13:03:08.860Z,81.99
2022-11-20T13:04:13.708Z,82.26
2022-11-20T13:05:54.138Z,81.41
2022-11-20T13:06:56.102Z,81.36
2022-11-20T13:07:58.073Z,81.56
2022-11-20T13:08:59.743Z,81.56
2022-11-20T13:10:01.501Z,81.67
2022-11-20T13:11:35.654Z,81.36
2022-11-20T13:12:46.119Z,81.17
2022-11-20T13:13:59.918Z,81.01
2022-11-20T13:15:29.809Z,81.11
2022-11-20T13:16:52.227Z,81.69
2022-11-20T13:17:56.922Z,81.99
2022-11-20T13:18:58.483Z,81.42
2022-11-20T13:20:00.051Z,81.50
2022-11-20T13:21:02.868Z,81.81
2022-11-20T13:22:04.454Z,81.43
2022-11-20T13:23:06.463Z,81.34
2022-11-20T13:24:31.363Z,81.20
2022-11-20T13:25:37.780Z,81.01
2022-11-20T13:26:40.094Z,81.37
2022-11-20T13:27:48.418Z,81.50
2022-11-20T13:29:11.328Z,82.19
2022-11-20T13:30:19.658Z,82.18
2022-11-20T13:31:34.784Z,82.89
2022-11-20T13:32:36.439Z,82.99
2022-11-20T13:33:38.973Z,83.25
2022-11-20T13:34:40.925Z,83.07
2022-11-20T13:35:42.970Z,83.45
2022-11-20T13:36:55.797Z,83.00
2022-11-20T13:38:01.810Z,82.89
2022-11-20T13:39:04.339Z,82.91
2022-11-20T13:40:21.077Z,82.89
2022-11-20T13:41:30.565Z,82.88
2022-11-20T13:42:32.380Z,82.77
2022-11-20T13:43:38.938Z,83.28
2022-11-20T13:44:45.508Z,82.86
2022-11-20T13:46:03.511Z,83.44
2022-11-20T13:47:05.972Z,83.59
2022-11-20T13:48:21.317Z,83.52
2022-11-20T13:49:32.216Z,83.49
2022-11-20T13:50:37.056Z,83.59
2022-11-20T13:51:44.140Z,83.27
2022-11-20T13:53:19.726Z,83.14
2022-11-20T13:54:38.200Z,83.25
2022-11-20T13:55:53.426Z,83.01
2022-11-20T13:57:09.944Z,83.63
2022-11-20T13:58:46.151Z,83.82
2022-11-20T13:59:59.407Z,83.91
2022-11-20T14:01:18.541Z,83.33
2022-11-20T14:02:22.131Z,83.38
2022-11-20T14:03:44.174Z,83.68
2022-11-20T14:04:53.357Z,83.80
2022-11-20T14:06:04.050Z,83.70
2022-11-20T14:07:07.079Z,83.59
2022-11-20T14:08:22.568Z,84.11
2022-11-20T14:09:28.170Z,83.44